sensor_id;sensor_type;location;lat;lon;timestamp;P1;durP1;ratioP1;P2;durP2;ratioP2
50219;SDS011;36110;51.536;7.562;2022-12-07T00:03:34;24.98;;;19.60;;
50219;SDS011;36110;51.536;7.562;2022-12-07T00:06:01;25.58;;;19.17;;
50219;SDS011;36110;51.536;7.562;2022-12-07T00:08:27;10.25;;;8.15;;
50219;SDS011;36110;51.536;7.562;2022-12-07T00:10:52;19.15;;;15.30;;
50219;SDS011;36110;51.536;7.562;2022-12-07T00:13:18;27.35;;;19.63;;
50219;SDS011;36110;51.536;7.562;2022-12-07T00:15:43;9.75;;;7.40;;
50219;SDS011;36110;51.536;7.562;2022-12-07T00:18:09;11.15;;;8.13;;
50219;SDS011;36110;51.536;7.562;2022-12-07T00:20:34;21.48;;;17.85;;
50219;SDS011;36110;51.536;7.562;2022-12-07T00:22:59;11.18;;;7.72;;
50219;SDS011;36110;51.536;7.562;2022-12-07T00:25:25;18.83;;;14.82;;
50219;SDS011;36110;51.536;7.562;2022-12-07T00:27:52;17.02;;;12.35;;
50219;SDS011;36110;51.536;7.562;2022-12-07T00:30:18;10.98;;;7.97;;
50219;SDS011;36110;51.536;7.562;2022-12-07T00:32:43;24.05;;;19.08;;
50219;SDS011;36110;51.536;7.562;2022-12-07T00:35:08;11.77;;;7.60;;
50219;SDS011;36110;51.536;7.562;2022-12-07T00:37:33;8.90;;;7.45;;
50219;SDS011;36110;51.536;7.562;2022-12-07T00:39:59;9.57;;;7.03;;
50219;SDS011;36110;51.536;7.562;2022-12-07T00:42:24;13.50;;;8.82;;
50219;SDS011;36110;51.536;7.562;2022-12-07T00:44:49;10.82;;;7.72;;
50219;SDS011;36110;51.536;7.562;2022-12-07T00:47:15;13.95;;;10.57;;
50219;SDS011;36110;51.536;7.562;2022-12-07T00:49:40;12.57;;;10.68;;
50219;SDS011;36110;51.536;7.562;2022-12-07T00:52:05;20.77;;;16.75;;
50219;SDS011;36110;51.536;7.562;2022-12-07T00:54:30;10.88;;;9.10;;
50219;SDS011;36110;51.536;7.562;2022-12-07T00:56:56;11.35;;;9.13;;
50219;SDS011;36110;51.536;7.562;2022-12-07T00:59:21;24.48;;;18.98;;
50219;SDS011;36110;51.536;7.562;2022-12-07T01:01:46;9.82;;;8.10;;
50219;SDS011;36110;51.536;7.562;2022-12-07T01:04:12;20.33;;;15.25;;
50219;SDS011;36110;51.536;7.562;2022-12-07T01:06:37;9.45;;;8.35;;
50219;SDS011;36110;51.536;7.562;2022-12-07T01:09:03;9.45;;;7.72;;
50219;SDS011;36110;51.536;7.562;2022-12-07T01:11:29;9.88;;;8.15;;
50219;SDS011;36110;51.536;7.562;2022-12-07T01:13:56;10.52;;;8.15;;
50219;SDS011;36110;51.536;7.562;2022-12-07T01:16:22;11.30;;;9.45;;
50219;SDS011;36110;51.536;7.562;2022-12-07T01:18:49;23.98;;;17.42;;
50219;SDS011;36110;51.536;7.562;2022-12-07T01:21:21;10.98;;;8.73;;
50219;SDS011;36110;51.536;7.562;2022-12-07T01:23:56;8.80;;;7.72;;
50219;SDS011;36110;51.536;7.562;2022-12-07T01:26:23;15.40;;;11.90;;
50219;SDS011;36110;51.536;7.562;2022-12-07T01:28:48;10.50;;;8.20;;
50219;SDS011;36110;51.536;7.562;2022-12-07T01:31:15;10.75;;;8.50;;
50219;SDS011;36110;51.536;7.562;2022-12-07T01:33:43;14.05;;;11.23;;
50219;SDS011;36110;51.536;7.562;2022-12-07T01:36:14;9.68;;;8.15;;
50219;SDS011;36110;51.536;7.562;2022-12-07T01:38:48;14.05;;;10.77;;
50219;SDS011;36110;51.536;7.562;2022-12-07T01:41:16;8.90;;;7.70;;
50219;SDS011;36110;51.536;7.562;2022-12-07T01:46:46;9.30;;;8.00;;
50219;SDS011;36110;51.536;7.562;2022-12-07T01:49:55;12.77;;;10.85;;
50219;SDS011;36110;51.536;7.562;2022-12-07T01:52:13;9.88;;;7.93;;
50219;SDS011;36110;51.536;7.562;2022-12-07T01:54:39;9.27;;;8.18;;
50219;SDS011;36110;51.536;7.562;2022-12-07T01:57:05;9.07;;;7.70;;
50219;SDS011;36110;51.536;7.562;2022-12-07T01:59:31;8.73;;;7.53;;
50219;SDS011;36110;51.536;7.562;2022-12-07T02:01:57;9.77;;;7.97;;
50219;SDS011;36110;51.536;7.562;2022-12-07T02:04:22;14.98;;;11.90;;
50219;SDS011;36110;51.536;7.562;2022-12-07T02:06:48;11.93;;;9.68;;
50219;SDS011;36110;51.536;7.562;2022-12-07T02:09:14;9.48;;;7.97;;
50219;SDS011;36110;51.536;7.562;2022-12-07T02:11:39;9.25;;;7.90;;
50219;SDS011;36110;51.536;7.562;2022-12-07T02:14:05;10.35;;;7.80;;
50219;SDS011;36110;51.536;7.562;2022-12-07T02:22:30;9.27;;;7.65;;
50219;SDS011;36110;51.536;7.562;2022-12-07T02:30:30;11.95;;;9.90;;
50219;SDS011;36110;51.536;7.562;2022-12-07T02:33:03;21.30;;;17.00;;
50219;SDS011;36110;51.536;7.562;2022-12-07T02:35:41;8.95;;;7.82;;
50219;SDS011;36110;51.536;7.562;2022-12-07T02:40:55;8.18;;;7.30;;
50219;SDS011;36110;51.536;7.562;2022-12-07T02:43:30;9.05;;;8.02;;
50219;SDS011;36110;51.536;7.562;2022-12-07T02:46:01;9.57;;;7.75;;
50219;SDS011;36110;51.536;7.562;2022-12-07T02:48:29;9.65;;;8.27;;
50219;SDS011;36110;51.536;7.562;2022-12-07T02:50:56;8.88;;;7.85;;
50219;SDS011;36110;51.536;7.562;2022-12-07T02:53:32;9.35;;;8.40;;
50219;SDS011;36110;51.536;7.562;2022-12-07T02:55:59;13.07;;;9.48;;
50219;SDS011;36110;51.536;7.562;2022-12-07T03:02:06;11.27;;;8.82;;
50219;SDS011;36110;51.536;7.562;2022-12-07T03:07:32;9.70;;;7.85;;
50219;SDS011;36110;51.536;7.562;2022-12-07T03:18:38;10.73;;;8.95;;
50219;SDS011;36110;51.536;7.562;2022-12-07T03:21:10;10.40;;;9.18;;
50219;SDS011;36110;51.536;7.562;2022-12-07T03:23:39;8.35;;;7.38;;
50219;SDS011;36110;51.536;7.562;2022-12-07T03:26:06;9.68;;;8.23;;
50219;SDS011;36110;51.536;7.562;2022-12-07T03:28:35;8.68;;;7.55;;
50219;SDS011;36110;51.536;7.562;2022-12-07T03:36:21;9.98;;;8.18;;
50219;SDS011;36110;51.536;7.562;2022-12-07T03:38:50;7.95;;;7.15;;
50219;SDS011;36110;51.536;7.562;2022-12-07T03:41:27;9.95;;;8.30;;
50219;SDS011;36110;51.536;7.562;2022-12-07T03:43:54;10.77;;;9.25;;
50219;SDS011;36110;51.536;7.562;2022-12-07T03:46:35;15.38;;;9.20;;
50219;SDS011;36110;51.536;7.562;2022-12-07T03:49:10;10.18;;;8.15;;
50219;SDS011;36110;51.536;7.562;2022-12-07T03:54:18;12.23;;;10.50;;
50219;SDS011;36110;51.536;7.562;2022-12-07T03:56:46;15.35;;;11.65;;
50219;SDS011;36110;51.536;7.562;2022-12-07T03:59:13;9.93;;;7.82;;
50219;SDS011;36110;51.536;7.562;2022-12-07T04:01:41;9.32;;;7.97;;
50219;SDS011;36110;51.536;7.562;2022-12-07T04:04:07;10.15;;;8.63;;
50219;SDS011;36110;51.536;7.562;2022-12-07T04:06:32;7.70;;;6.88;;
50219;SDS011;36110;51.536;7.562;2022-12-07T04:08:58;13.35;;;10.40;;
50219;SDS011;36110;51.536;7.562;2022-12-07T04:11:24;13.50;;;11.15;;
50219;SDS011;36110;51.536;7.562;2022-12-07T04:13:49;8.85;;;7.70;;
50219;SDS011;36110;51.536;7.562;2022-12-07T04:16:33;8.52;;;7.47;;
50219;SDS011;36110;51.536;7.562;2022-12-07T04:18:59;12.93;;;10.20;;
50219;SDS011;36110;51.536;7.562;2022-12-07T04:21:24;8.38;;;7.40;;
50219;SDS011;36110;51.536;7.562;2022-12-07T04:23:49;17.85;;;11.55;;
50219;SDS011;36110;51.536;7.562;2022-12-07T04:26:14;9.77;;;7.88;;
50219;SDS011;36110;51.536;7.562;2022-12-07T04:28:40;22.65;;;16.50;;
50219;SDS011;36110;51.536;7.562;2022-12-07T04:31:05;9.65;;;8.50;;
50219;SDS011;36110;51.536;7.562;2022-12-07T04:33:30;8.90;;;7.97;;
50219;SDS011;36110;51.536;7.562;2022-12-07T04:35:56;11.15;;;8.70;;
50219;SDS011;36110;51.536;7.562;2022-12-07T04:38:21;20.63;;;16.23;;
50219;SDS011;36110;51.536;7.562;2022-12-07T04:40:46;8.00;;;7.10;;
50219;SDS011;36110;51.536;7.562;2022-12-07T04:43:12;8.75;;;7.20;;
50219;SDS011;36110;51.536;7.562;2022-12-07T04:45:38;7.53;;;6.72;;
50219;SDS011;36110;51.536;7.562;2022-12-07T04:48:03;8.68;;;7.38;;
50219;SDS011;36110;51.536;7.562;2022-12-07T04:50:29;8.68;;;7.30;;
50219;SDS011;36110;51.536;7.562;2022-12-07T04:52:54;9.07;;;7.63;;
50219;SDS011;36110;51.536;7.562;2022-12-07T04:55:19;13.45;;;9.63;;
50219;SDS011;36110;51.536;7.562;2022-12-07T04:57:44;9.48;;;7.85;;
50219;SDS011;36110;51.536;7.562;2022-12-07T05:00:10;10.27;;;7.38;;
50219;SDS011;36110;51.536;7.562;2022-12-07T05:02:37;8.48;;;7.32;;
50219;SDS011;36110;51.536;7.562;2022-12-07T05:05:02;10.93;;;8.05;;
50219;SDS011;36110;51.536;7.562;2022-12-07T05:07:28;9.25;;;7.57;;
50219;SDS011;36110;51.536;7.562;2022-12-07T05:09:54;16.83;;;12.40;;
50219;SDS011;36110;51.536;7.562;2022-12-07T05:12:19;8.05;;;7.22;;
50219;SDS011;36110;51.536;7.562;2022-12-07T05:14:44;7.80;;;6.80;;
50219;SDS011;36110;51.536;7.562;2022-12-07T05:17:10;7.78;;;6.95;;
50219;SDS011;36110;51.536;7.562;2022-12-07T05:19:36;13.98;;;11.48;;
50219;SDS011;36110;51.536;7.562;2022-12-07T05:22:01;8.52;;;7.63;;
50219;SDS011;36110;51.536;7.562;2022-12-07T05:24:27;7.80;;;6.88;;
50219;SDS011;36110;51.536;7.562;2022-12-07T05:26:52;11.13;;;7.70;;
50219;SDS011;36110;51.536;7.562;2022-12-07T05:29:17;8.55;;;7.00;;
50219;SDS011;36110;51.536;7.562;2022-12-07T05:31:43;8.35;;;7.45;;
50219;SDS011;36110;51.536;7.562;2022-12-07T05:34:08;16.65;;;11.77;;
50219;SDS011;36110;51.536;7.562;2022-12-07T05:36:36;8.25;;;6.80;;
50219;SDS011;36110;51.536;7.562;2022-12-07T05:39:01;7.43;;;6.63;;
50219;SDS011;36110;51.536;7.562;2022-12-07T05:41:27;7.97;;;7.00;;
50219;SDS011;36110;51.536;7.562;2022-12-07T05:44:11;10.40;;;9.23;;
50219;SDS011;36110;51.536;7.562;2022-12-07T05:46:36;8.10;;;7.05;;
50219;SDS011;36110;51.536;7.562;2022-12-07T05:49:02;8.30;;;7.18;;
50219;SDS011;36110;51.536;7.562;2022-12-07T05:51:30;7.70;;;6.72;;
50219;SDS011;36110;51.536;7.562;2022-12-07T05:53:55;8.73;;;7.35;;
50219;SDS011;36110;51.536;7.562;2022-12-07T05:56:20;7.65;;;6.95;;
50219;SDS011;36110;51.536;7.562;2022-12-07T05:58:46;10.45;;;9.13;;
50219;SDS011;36110;51.536;7.562;2022-12-07T06:01:30;18.92;;;13.10;;
50219;SDS011;36110;51.536;7.562;2022-12-07T06:03:55;7.60;;;6.78;;
50219;SDS011;36110;51.536;7.562;2022-12-07T06:06:20;8.13;;;6.85;;
50219;SDS011;36110;51.536;7.562;2022-12-07T06:08:46;8.88;;;7.90;;
50219;SDS011;36110;51.536;7.562;2022-12-07T06:11:11;9.30;;;6.68;;
50219;SDS011;36110;51.536;7.562;2022-12-07T06:13:55;7.47;;;6.60;;
50219;SDS011;36110;51.536;7.562;2022-12-07T06:16:21;7.82;;;7.03;;
50219;SDS011;36110;51.536;7.562;2022-12-07T06:18:47;16.15;;;11.15;;
50219;SDS011;36110;51.536;7.562;2022-12-07T06:21:12;6.97;;;6.20;;
50219;SDS011;36110;51.536;7.562;2022-12-07T06:23:38;7.18;;;6.43;;
50219;SDS011;36110;51.536;7.562;2022-12-07T06:26:03;7.15;;;6.32;;
50219;SDS011;36110;51.536;7.562;2022-12-07T06:28:28;7.97;;;6.78;;
50219;SDS011;36110;51.536;7.562;2022-12-07T06:31:01;7.38;;;6.65;;
50219;SDS011;36110;51.536;7.562;2022-12-07T06:33:28;6.78;;;6.05;;
50219;SDS011;36110;51.536;7.562;2022-12-07T06:35:54;11.68;;;10.10;;
50219;SDS011;36110;51.536;7.562;2022-12-07T06:38:19;8.50;;;7.60;;
50219;SDS011;36110;51.536;7.562;2022-12-07T06:40:45;9.82;;;7.97;;
50219;SDS011;36110;51.536;7.562;2022-12-07T06:43:10;12.68;;;9.45;;
50219;SDS011;36110;51.536;7.562;2022-12-07T06:45:35;21.27;;;13.95;;
50219;SDS011;36110;51.536;7.562;2022-12-07T06:48:01;24.10;;;16.52;;
50219;SDS011;36110;51.536;7.562;2022-12-07T06:50:26;23.80;;;17.52;;
50219;SDS011;36110;51.536;7.562;2022-12-07T06:52:51;25.08;;;15.75;;
50219;SDS011;36110;51.536;7.562;2022-12-07T06:55:17;24.55;;;16.63;;
50219;SDS011;36110;51.536;7.562;2022-12-07T06:57:42;23.88;;;16.13;;
50219;SDS011;36110;51.536;7.562;2022-12-07T07:00:08;26.20;;;16.15;;
50219;SDS011;36110;51.536;7.562;2022-12-07T07:02:34;23.85;;;16.13;;
50219;SDS011;36110;51.536;7.562;2022-12-07T07:04:59;22.85;;;15.93;;
50219;SDS011;36110;51.536;7.562;2022-12-07T07:07:24;21.67;;;15.88;;
50219;SDS011;36110;51.536;7.562;2022-12-07T07:09:50;28.77;;;17.50;;
50219;SDS011;36110;51.536;7.562;2022-12-07T07:12:15;24.15;;;16.48;;
50219;SDS011;36110;51.536;7.562;2022-12-07T07:14:40;24.33;;;16.58;;
50219;SDS011;36110;51.536;7.562;2022-12-07T07:17:06;23.42;;;16.60;;
50219;SDS011;36110;51.536;7.562;2022-12-07T07:19:32;21.75;;;16.02;;
50219;SDS011;36110;51.536;7.562;2022-12-07T07:21:57;24.65;;;16.25;;
50219;SDS011;36110;51.536;7.562;2022-12-07T07:24:22;24.15;;;16.38;;
50219;SDS011;36110;51.536;7.562;2022-12-07T07:26:47;24.17;;;17.00;;
50219;SDS011;36110;51.536;7.562;2022-12-07T07:29:13;22.10;;;15.63;;
50219;SDS011;36110;51.536;7.562;2022-12-07T07:31:38;28.05;;;16.63;;
50219;SDS011;36110;51.536;7.562;2022-12-07T07:34:04;24.13;;;17.50;;
50219;SDS011;36110;51.536;7.562;2022-12-07T07:36:29;23.75;;;17.27;;
50219;SDS011;36110;51.536;7.562;2022-12-07T07:38:54;25.90;;;16.77;;
50219;SDS011;36110;51.536;7.562;2022-12-07T07:41:19;25.38;;;16.67;;
50219;SDS011;36110;51.536;7.562;2022-12-07T07:43:45;23.65;;;17.08;;
50219;SDS011;36110;51.536;7.562;2022-12-07T07:46:10;26.52;;;16.80;;
50219;SDS011;36110;51.536;7.562;2022-12-07T07:48:35;21.80;;;16.15;;
50219;SDS011;36110;51.536;7.562;2022-12-07T07:51:04;22.95;;;16.33;;
50219;SDS011;36110;51.536;7.562;2022-12-07T07:53:31;24.00;;;16.88;;
50219;SDS011;36110;51.536;7.562;2022-12-07T07:55:56;21.73;;;15.82;;
50219;SDS011;36110;51.536;7.562;2022-12-07T07:58:21;22.65;;;15.93;;
50219;SDS011;36110;51.536;7.562;2022-12-07T08:00:47;26.20;;;17.30;;
50219;SDS011;36110;51.536;7.562;2022-12-07T08:03:12;26.00;;;15.75;;
50219;SDS011;36110;51.536;7.562;2022-12-07T08:05:38;22.33;;;15.45;;
50219;SDS011;36110;51.536;7.562;2022-12-07T08:08:03;21.17;;;15.95;;
50219;SDS011;36110;51.536;7.562;2022-12-07T08:10:29;20.88;;;15.55;;
50219;SDS011;36110;51.536;7.562;2022-12-07T08:12:54;20.85;;;14.90;;
50219;SDS011;36110;51.536;7.562;2022-12-07T08:15:38;21.95;;;15.38;;
50219;SDS011;36110;51.536;7.562;2022-12-07T08:18:05;21.33;;;14.52;;
50219;SDS011;36110;51.536;7.562;2022-12-07T08:20:30;19.45;;;14.23;;
50219;SDS011;36110;51.536;7.562;2022-12-07T08:22:57;19.80;;;14.20;;
50219;SDS011;36110;51.536;7.562;2022-12-07T08:25:22;24.98;;;15.63;;
50219;SDS011;36110;51.536;7.562;2022-12-07T08:27:48;19.15;;;14.75;;
50219;SDS011;36110;51.536;7.562;2022-12-07T08:30:13;17.73;;;13.95;;
50219;SDS011;36110;51.536;7.562;2022-12-07T08:32:39;18.70;;;14.10;;
50219;SDS011;36110;51.536;7.562;2022-12-07T08:35:04;20.85;;;14.48;;
50219;SDS011;36110;51.536;7.562;2022-12-07T08:37:31;17.98;;;13.95;;
50219;SDS011;36110;51.536;7.562;2022-12-07T08:39:56;27.52;;;12.63;;
50219;SDS011;36110;51.536;7.562;2022-12-07T08:42:24;18.10;;;14.02;;
50219;SDS011;36110;51.536;7.562;2022-12-07T08:44:54;19.00;;;14.05;;
50219;SDS011;36110;51.536;7.562;2022-12-07T08:47:19;18.48;;;13.75;;
50219;SDS011;36110;51.536;7.562;2022-12-07T08:49:45;17.85;;;13.52;;
50219;SDS011;36110;51.536;7.562;2022-12-07T08:52:12;23.02;;;12.20;;
50219;SDS011;36110;51.536;7.562;2022-12-07T08:54:38;18.55;;;14.05;;
50219;SDS011;36110;51.536;7.562;2022-12-07T08:57:05;18.95;;;13.88;;
50219;SDS011;36110;51.536;7.562;2022-12-07T08:59:31;18.40;;;13.57;;
50219;SDS011;36110;51.536;7.562;2022-12-07T09:01:58;20.17;;;13.52;;
50219;SDS011;36110;51.536;7.562;2022-12-07T09:04:23;18.40;;;13.32;;
50219;SDS011;36110;51.536;7.562;2022-12-07T09:06:48;19.38;;;11.60;;
50219;SDS011;36110;51.536;7.562;2022-12-07T09:09:14;19.13;;;10.95;;
50219;SDS011;36110;51.536;7.562;2022-12-07T09:11:40;17.77;;;13.07;;
50219;SDS011;36110;51.536;7.562;2022-12-07T09:14:05;16.23;;;13.40;;
50219;SDS011;36110;51.536;7.562;2022-12-07T09:16:31;16.33;;;13.38;;
50219;SDS011;36110;51.536;7.562;2022-12-07T09:18:56;19.95;;;11.52;;
50219;SDS011;36110;51.536;7.562;2022-12-07T09:21:21;16.48;;;12.93;;
50219;SDS011;36110;51.536;7.562;2022-12-07T09:23:47;17.90;;;13.23;;
50219;SDS011;36110;51.536;7.562;2022-12-07T09:26:12;18.02;;;12.98;;
50219;SDS011;36110;51.536;7.562;2022-12-07T09:28:37;19.40;;;11.85;;
50219;SDS011;36110;51.536;7.562;2022-12-07T09:31:03;21.27;;;11.93;;
50219;SDS011;36110;51.536;7.562;2022-12-07T09:33:28;18.17;;;12.43;;
50219;SDS011;36110;51.536;7.562;2022-12-07T09:35:53;16.80;;;12.40;;
50219;SDS011;36110;51.536;7.562;2022-12-07T09:38:19;18.60;;;11.27;;
50219;SDS011;36110;51.536;7.562;2022-12-07T09:40:45;15.57;;;12.20;;
50219;SDS011;36110;51.536;7.562;2022-12-07T09:43:21;18.88;;;12.52;;
50219;SDS011;36110;51.536;7.562;2022-12-07T09:45:49;18.17;;;11.13;;
50219;SDS011;36110;51.536;7.562;2022-12-07T09:48:18;21.20;;;11.07;;
50219;SDS011;36110;51.536;7.562;2022-12-07T09:50:46;25.27;;;11.75;;
50219;SDS011;36110;51.536;7.562;2022-12-07T09:53:19;27.52;;;13.05;;
50219;SDS011;36110;51.536;7.562;2022-12-07T09:55:46;20.90;;;11.35;;
50219;SDS011;36110;51.536;7.562;2022-12-07T09:58:16;24.05;;;11.18;;
50219;SDS011;36110;51.536;7.562;2022-12-07T10:00:44;16.00;;;10.00;;
50219;SDS011;36110;51.536;7.562;2022-12-07T10:03:10;21.25;;;10.60;;
50219;SDS011;36110;51.536;7.562;2022-12-07T10:05:38;21.55;;;11.25;;
50219;SDS011;36110;51.536;7.562;2022-12-07T10:08:12;19.10;;;9.82;;
50219;SDS011;36110;51.536;7.562;2022-12-07T10:10:39;19.30;;;10.70;;
50219;SDS011;36110;51.536;7.562;2022-12-07T10:13:06;22.27;;;10.32;;
50219;SDS011;36110;51.536;7.562;2022-12-07T10:26:30;17.38;;;10.27;;
50219;SDS011;36110;51.536;7.562;2022-12-07T10:29:40;16.35;;;10.48;;
50219;SDS011;36110;51.536;7.562;2022-12-07T10:31:52;20.98;;;10.88;;
50219;SDS011;36110;51.536;7.562;2022-12-07T10:39:40;16.15;;;10.88;;
50219;SDS011;36110;51.536;7.562;2022-12-07T10:42:28;17.20;;;10.80;;
50219;SDS011;36110;51.536;7.562;2022-12-07T10:45:08;18.50;;;10.00;;
50219;SDS011;36110;51.536;7.562;2022-12-07T10:52:58;16.52;;;10.50;;
50219;SDS011;36110;51.536;7.562;2022-12-07T10:55:39;16.77;;;9.27;;
50219;SDS011;36110;51.536;7.562;2022-12-07T10:58:24;14.40;;;9.50;;
50219;SDS011;36110;51.536;7.562;2022-12-07T11:01:11;18.30;;;9.88;;
50219;SDS011;36110;51.536;7.562;2022-12-07T11:03:46;15.73;;;9.43;;
50219;SDS011;36110;51.536;7.562;2022-12-07T11:12:22;16.73;;;10.45;;
50219;SDS011;36110;51.536;7.562;2022-12-07T11:14:59;19.95;;;9.32;;
50219;SDS011;36110;51.536;7.562;2022-12-07T11:17:36;16.10;;;9.85;;
50219;SDS011;36110;51.536;7.562;2022-12-07T11:22:51;14.63;;;9.25;;
50219;SDS011;36110;51.536;7.562;2022-12-07T11:25:39;14.43;;;9.30;;
50219;SDS011;36110;51.536;7.562;2022-12-07T11:31:18;14.68;;;8.43;;
50219;SDS011;36110;51.536;7.562;2022-12-07T11:33:54;13.85;;;9.63;;
50219;SDS011;36110;51.536;7.562;2022-12-07T11:38:56;12.57;;;8.90;;
50219;SDS011;36110;51.536;7.562;2022-12-07T11:41:29;14.38;;;8.95;;
50219;SDS011;36110;51.536;7.562;2022-12-07T11:44:07;12.38;;;8.77;;
50219;SDS011;36110;51.536;7.562;2022-12-07T11:47:02;16.35;;;9.27;;
50219;SDS011;36110;51.536;7.562;2022-12-07T11:51:57;11.95;;;8.32;;
50219;SDS011;36110;51.536;7.562;2022-12-07T11:54:26;12.43;;;7.90;;
50219;SDS011;36110;51.536;7.562;2022-12-07T11:56:54;13.75;;;8.75;;
50219;SDS011;36110;51.536;7.562;2022-12-07T11:59:30;11.40;;;8.52;;
50219;SDS011;36110;51.536;7.562;2022-12-07T12:02:01;12.30;;;8.23;;
50219;SDS011;36110;51.536;7.562;2022-12-07T12:04:46;14.82;;;8.38;;
50219;SDS011;36110;51.536;7.562;2022-12-07T12:07:15;10.27;;;8.40;;
50219;SDS011;36110;51.536;7.562;2022-12-07T12:09:55;10.25;;;8.23;;
50219;SDS011;36110;51.536;7.562;2022-12-07T12:21:09;14.85;;;8.15;;
50219;SDS011;36110;51.536;7.562;2022-12-07T12:23:43;12.60;;;7.90;;
50219;SDS011;36110;51.536;7.562;2022-12-07T12:26:15;11.60;;;7.55;;
50219;SDS011;36110;51.536;7.562;2022-12-07T12:28:54;15.07;;;7.65;;
50219;SDS011;36110;51.536;7.562;2022-12-07T12:33:52;11.75;;;7.60;;
50219;SDS011;36110;51.536;7.562;2022-12-07T12:36:23;10.70;;;7.70;;
50219;SDS011;36110;51.536;7.562;2022-12-07T12:51:41;11.55;;;7.30;;
50219;SDS011;36110;51.536;7.562;2022-12-07T12:54:12;11.35;;;7.20;;
50219;SDS011;36110;51.536;7.562;2022-12-07T12:56:43;10.98;;;7.38;;
50219;SDS011;36110;51.536;7.562;2022-12-07T12:59:36;10.52;;;7.10;;
50219;SDS011;36110;51.536;7.562;2022-12-07T13:02:24;8.52;;;6.93;;
50219;SDS011;36110;51.536;7.562;2022-12-07T13:13:25;12.98;;;6.40;;
50219;SDS011;36110;51.536;7.562;2022-12-07T13:15:54;8.40;;;5.80;;
50219;SDS011;36110;51.536;7.562;2022-12-07T13:18:41;8.57;;;6.13;;
50219;SDS011;36110;51.536;7.562;2022-12-07T13:29:04;8.35;;;6.25;;
50219;SDS011;36110;51.536;7.562;2022-12-07T13:37:08;9.23;;;6.43;;
50219;SDS011;36110;51.536;7.562;2022-12-07T13:39:43;8.45;;;5.68;;
50219;SDS011;36110;51.536;7.562;2022-12-07T13:42:15;12.35;;;6.40;;
50219;SDS011;36110;51.536;7.562;2022-12-07T13:44:46;8.75;;;6.57;;
50219;SDS011;36110;51.536;7.562;2022-12-07T13:47:13;8.27;;;5.93;;
50219;SDS011;36110;51.536;7.562;2022-12-07T13:49:52;8.80;;;5.72;;
50219;SDS011;36110;51.536;7.562;2022-12-07T13:54:45;8.00;;;4.03;;
50219;SDS011;36110;51.536;7.562;2022-12-07T13:57:15;7.57;;;5.15;;
50219;SDS011;36110;51.536;7.562;2022-12-07T13:59:41;8.65;;;5.60;;
50219;SDS011;36110;51.536;7.562;2022-12-07T14:02:17;7.07;;;5.60;;
50219;SDS011;36110;51.536;7.562;2022-12-07T14:04:43;7.90;;;5.75;;
50219;SDS011;36110;51.536;7.562;2022-12-07T14:07:22;12.68;;;6.00;;
50219;SDS011;36110;51.536;7.562;2022-12-07T14:12:22;9.05;;;5.60;;
50219;SDS011;36110;51.536;7.562;2022-12-07T14:14:48;7.82;;;5.50;;
50219;SDS011;36110;51.536;7.562;2022-12-07T14:17:17;9.77;;;5.70;;
50219;SDS011;36110;51.536;7.562;2022-12-07T14:19:52;9.35;;;5.40;;
50219;SDS011;36110;51.536;7.562;2022-12-07T14:22:21;9.50;;;5.60;;
50219;SDS011;36110;51.536;7.562;2022-12-07T14:24:48;8.40;;;5.60;;
50219;SDS011;36110;51.536;7.562;2022-12-07T14:27:21;7.18;;;3.58;;
50219;SDS011;36110;51.536;7.562;2022-12-07T14:29:50;9.85;;;3.50;;
50219;SDS011;36110;51.536;7.562;2022-12-07T14:32:28;10.38;;;3.40;;
50219;SDS011;36110;51.536;7.562;2022-12-07T14:37:24;10.65;;;3.10;;
50219;SDS011;36110;51.536;7.562;2022-12-07T14:39:49;9.90;;;3.55;;
50219;SDS011;36110;51.536;7.562;2022-12-07T14:42:15;12.48;;;3.58;;
50219;SDS011;36110;51.536;7.562;2022-12-07T14:44:40;12.98;;;3.67;;
50219;SDS011;36110;51.536;7.562;2022-12-07T14:49:33;9.02;;;2.97;;
50219;SDS011;36110;51.536;7.562;2022-12-07T14:51:58;10.40;;;3.72;;
50219;SDS011;36110;51.536;7.562;2022-12-07T14:54:23;16.50;;;7.60;;
50219;SDS011;36110;51.536;7.562;2022-12-07T14:56:51;17.17;;;7.35;;
50219;SDS011;36110;51.536;7.562;2022-12-07T14:59:16;15.55;;;6.28;;
50219;SDS011;36110;51.536;7.562;2022-12-07T15:01:42;16.63;;;6.75;;
50219;SDS011;36110;51.536;7.562;2022-12-07T15:04:07;14.43;;;6.22;;
50219;SDS011;36110;51.536;7.562;2022-12-07T15:06:33;16.25;;;6.30;;
50219;SDS011;36110;51.536;7.562;2022-12-07T15:08:58;17.15;;;6.18;;
50219;SDS011;36110;51.536;7.562;2022-12-07T15:11:23;12.05;;;5.88;;
50219;SDS011;36110;51.536;7.562;2022-12-07T15:13:49;12.98;;;6.53;;
50219;SDS011;36110;51.536;7.562;2022-12-07T15:16:32;10.25;;;6.07;;
50219;SDS011;36110;51.536;7.562;2022-12-07T15:18:58;12.93;;;5.53;;
50219;SDS011;36110;51.536;7.562;2022-12-07T15:21:23;12.00;;;5.85;;
50219;SDS011;36110;51.536;7.562;2022-12-07T15:23:48;12.77;;;6.43;;
50219;SDS011;36110;51.536;7.562;2022-12-07T15:26:14;8.82;;;5.45;;
50219;SDS011;36110;51.536;7.562;2022-12-07T15:28:40;11.85;;;6.20;;
50219;SDS011;36110;51.536;7.562;2022-12-07T15:31:12;10.88;;;6.10;;
50219;SDS011;36110;51.536;7.562;2022-12-07T15:33:41;12.63;;;5.63;;
50219;SDS011;36110;51.536;7.562;2022-12-07T15:36:06;9.88;;;5.38;;
50219;SDS011;36110;51.536;7.562;2022-12-07T15:38:32;12.63;;;5.45;;
50219;SDS011;36110;51.536;7.562;2022-12-07T15:40:57;12.73;;;5.32;;
50219;SDS011;36110;51.536;7.562;2022-12-07T15:43:22;9.60;;;4.78;;
50219;SDS011;36110;51.536;7.562;2022-12-07T15:46:06;8.73;;;5.05;;
50219;SDS011;36110;51.536;7.562;2022-12-07T15:48:32;8.82;;;4.95;;
50219;SDS011;36110;51.536;7.562;2022-12-07T15:51:01;11.88;;;4.78;;
50219;SDS011;36110;51.536;7.562;2022-12-07T15:53:30;11.43;;;5.40;;
50219;SDS011;36110;51.536;7.562;2022-12-07T15:55:56;9.52;;;4.95;;
50219;SDS011;36110;51.536;7.562;2022-12-07T15:58:21;9.25;;;5.07;;
50219;SDS011;36110;51.536;7.562;2022-12-07T16:00:46;12.02;;;4.90;;
50219;SDS011;36110;51.536;7.562;2022-12-07T16:03:13;6.93;;;4.05;;
50219;SDS011;36110;51.536;7.562;2022-12-07T16:05:38;9.05;;;4.93;;
50219;SDS011;36110;51.536;7.562;2022-12-07T16:08:03;9.88;;;4.90;;
50219;SDS011;36110;51.536;7.562;2022-12-07T16:10:29;10.10;;;5.10;;
50219;SDS011;36110;51.536;7.562;2022-12-07T16:12:54;7.18;;;4.25;;
50219;SDS011;36110;51.536;7.562;2022-12-07T16:15:20;8.57;;;4.82;;
50219;SDS011;36110;51.536;7.562;2022-12-07T16:17:45;8.27;;;4.25;;
50219;SDS011;36110;51.536;7.562;2022-12-07T16:20:11;11.57;;;4.80;;
50219;SDS011;36110;51.536;7.562;2022-12-07T16:22:36;9.18;;;4.70;;
50219;SDS011;36110;51.536;7.562;2022-12-07T16:25:01;9.75;;;4.55;;
50219;SDS011;36110;51.536;7.562;2022-12-07T16:27:27;7.22;;;4.18;;
50219;SDS011;36110;51.536;7.562;2022-12-07T16:29:52;7.28;;;4.47;;
50219;SDS011;36110;51.536;7.562;2022-12-07T16:32:18;7.07;;;4.50;;
50219;SDS011;36110;51.536;7.562;2022-12-07T16:34:43;8.52;;;4.28;;
50219;SDS011;36110;51.536;7.562;2022-12-07T16:37:08;9.00;;;4.10;;
50219;SDS011;36110;51.536;7.562;2022-12-07T16:39:34;8.27;;;5.07;;
50219;SDS011;36110;51.536;7.562;2022-12-07T16:41:59;11.60;;;5.00;;
50219;SDS011;36110;51.536;7.562;2022-12-07T16:44:25;13.05;;;5.05;;
50219;SDS011;36110;51.536;7.562;2022-12-07T16:46:50;7.32;;;4.20;;
50219;SDS011;36110;51.536;7.562;2022-12-07T16:49:15;6.47;;;3.90;;
50219;SDS011;36110;51.536;7.562;2022-12-07T16:51:41;14.65;;;5.78;;
50219;SDS011;36110;51.536;7.562;2022-12-07T16:54:11;6.28;;;3.80;;
50219;SDS011;36110;51.536;7.562;2022-12-07T16:56:36;7.60;;;3.92;;
50219;SDS011;36110;51.536;7.562;2022-12-07T16:59:02;6.40;;;4.20;;